sensor_id;sensor_type;location;lat;lon;timestamp;P1;durP1;ratioP1;P2;durP2;ratioP2
16892;SDS011;8563;52.242;9.098;2023-05-10T00:00:44;5.10;;;4.70;;
16892;SDS011;8563;52.242;9.098;2023-05-10T00:03:16;6.00;;;5.50;;
16892;SDS011;8563;52.242;9.098;2023-05-10T00:05:50;5.37;;;4.97;;
16892;SDS011;8563;52.242;9.098;2023-05-10T00:08:23;5.33;;;4.93;;
16892;SDS011;8563;52.242;9.098;2023-05-10T00:10:55;6.20;;;5.70;;
16892;SDS011;8563;52.242;9.098;2023-05-10T00:13:28;6.13;;;5.63;;
16892;SDS011;8563;52.242;9.098;2023-05-10T00:16:00;5.47;;;5.03;;
16892;SDS011;8563;52.242;9.098;2023-05-10T00:18:32;5.93;;;5.43;;
16892;SDS011;8563;52.242;9.098;2023-05-10T00:21:06;5.77;;;5.27;;
16892;SDS011;8563;52.242;9.098;2023-05-10T00:23:39;5.67;;;5.20;;
16892;SDS011;8563;52.242;9.098;2023-05-10T00:26:11;6.33;;;5.43;;
16892;SDS011;8563;52.242;9.098;2023-05-10T00:28:47;5.83;;;5.23;;
16892;SDS011;8563;52.242;9.098;2023-05-10T00:31:22;6.33;;;5.83;;
16892;SDS011;8563;52.242;9.098;2023-05-10T00:33:54;5.57;;;5.07;;
16892;SDS011;8563;52.242;9.098;2023-05-10T00:36:29;6.13;;;5.63;;
16892;SDS011;8563;52.242;9.098;2023-05-10T00:39:01;5.97;;;5.47;;
16892;SDS011;8563;52.242;9.098;2023-05-10T00:41:34;6.70;;;6.03;;
16892;SDS011;8563;52.242;9.098;2023-05-10T00:44:09;6.33;;;5.83;;
16892;SDS011;8563;52.242;9.098;2023-05-10T00:46:41;6.37;;;5.80;;
16892;SDS011;8563;52.242;9.098;2023-05-10T00:49:14;6.50;;;6.00;;
16892;SDS011;8563;52.242;9.098;2023-05-10T00:51:48;6.27;;;5.77;;
16892;SDS011;8563;52.242;9.098;2023-05-10T00:54:20;6.40;;;5.90;;
16892;SDS011;8563;52.242;9.098;2023-05-10T00:56:54;6.47;;;5.93;;
16892;SDS011;8563;52.242;9.098;2023-05-10T00:59:27;6.87;;;6.20;;
16892;SDS011;8563;52.242;9.098;2023-05-10T01:02:00;6.60;;;6.10;;
16892;SDS011;8563;52.242;9.098;2023-05-10T01:04:34;7.17;;;6.57;;
16892;SDS011;8563;52.242;9.098;2023-05-10T01:07:08;6.80;;;6.20;;
16892;SDS011;8563;52.242;9.098;2023-05-10T01:09:41;7.00;;;6.40;;
16892;SDS011;8563;52.242;9.098;2023-05-10T01:12:15;6.50;;;5.63;;
16892;SDS011;8563;52.242;9.098;2023-05-10T01:14:47;6.60;;;6.10;;
16892;SDS011;8563;52.242;9.098;2023-05-10T01:17:20;7.00;;;6.40;;
16892;SDS011;8563;52.242;9.098;2023-05-10T01:19:54;6.77;;;6.27;;
16892;SDS011;8563;52.242;9.098;2023-05-10T01:25:32;6.67;;;6.17;;
16892;SDS011;8563;52.242;9.098;2023-05-10T01:28:15;6.47;;;5.97;;
16892;SDS011;8563;52.242;9.098;2023-05-10T01:30:58;7.05;;;6.45;;
16892;SDS011;8563;52.242;9.098;2023-05-10T01:33:38;6.80;;;6.30;;
16892;SDS011;8563;52.242;9.098;2023-05-10T01:36:13;7.17;;;6.57;;
16892;SDS011;8563;52.242;9.098;2023-05-10T01:38:48;7.90;;;7.23;;
16892;SDS011;8563;52.242;9.098;2023-05-10T01:41:24;7.43;;;6.77;;
16892;SDS011;8563;52.242;9.098;2023-05-10T01:44:01;7.50;;;6.87;;
16892;SDS011;8563;52.242;9.098;2023-05-10T01:46:35;8.07;;;7.43;;
16892;SDS011;8563;52.242;9.098;2023-05-10T01:49:11;7.80;;;7.07;;
16892;SDS011;8563;52.242;9.098;2023-05-10T01:51:47;7.03;;;6.43;;
16892;SDS011;8563;52.242;9.098;2023-05-10T01:54:21;7.70;;;7.10;;
16892;SDS011;8563;52.242;9.098;2023-05-10T01:56:55;7.63;;;7.03;;
16892;SDS011;8563;52.242;9.098;2023-05-10T01:59:30;7.37;;;6.77;;
16892;SDS011;8563;52.242;9.098;2023-05-10T02:02:03;8.07;;;7.37;;
16892;SDS011;8563;52.242;9.098;2023-05-10T02:04:38;7.50;;;6.80;;
16892;SDS011;8563;52.242;9.098;2023-05-10T02:07:11;6.73;;;6.13;;
16892;SDS011;8563;52.242;9.098;2023-05-10T02:09:44;7.80;;;7.20;;
16892;SDS011;8563;52.242;9.098;2023-05-10T02:12:18;8.97;;;8.10;;
16892;SDS011;8563;52.242;9.098;2023-05-10T02:14:51;7.63;;;6.93;;
16892;SDS011;8563;52.242;9.098;2023-05-10T02:17:24;7.37;;;6.77;;
16892;SDS011;8563;52.242;9.098;2023-05-10T02:19:59;7.47;;;6.87;;
16892;SDS011;8563;52.242;9.098;2023-05-10T02:22:33;7.97;;;7.27;;
16892;SDS011;8563;52.242;9.098;2023-05-10T02:25:07;8.87;;;8.07;;
16892;SDS011;8563;52.242;9.098;2023-05-10T02:27:40;9.20;;;8.40;;
16892;SDS011;8563;52.242;9.098;2023-05-10T02:30:13;8.50;;;7.80;;
16892;SDS011;8563;52.242;9.098;2023-05-10T02:32:46;8.83;;;8.03;;
16892;SDS011;8563;52.242;9.098;2023-05-10T02:35:20;8.70;;;7.80;;
16892;SDS011;8563;52.242;9.098;2023-05-10T02:37:54;9.33;;;8.20;;
16892;SDS011;8563;52.242;9.098;2023-05-10T02:40:27;8.87;;;8.13;;
16892;SDS011;8563;52.242;9.098;2023-05-10T02:43:00;9.07;;;8.27;;
16892;SDS011;8563;52.242;9.098;2023-05-10T02:45:35;8.50;;;7.80;;
16892;SDS011;8563;52.242;9.098;2023-05-10T02:48:09;8.43;;;7.73;;
16892;SDS011;8563;52.242;9.098;2023-05-10T02:50:43;9.57;;;8.77;;
16892;SDS011;8563;52.242;9.098;2023-05-10T02:53:18;10.20;;;9.20;;
16892;SDS011;8563;52.242;9.098;2023-05-10T02:55:53;9.10;;;8.30;;
16892;SDS011;8563;52.242;9.098;2023-05-10T02:58:27;7.83;;;7.13;;
16892;SDS011;8563;52.242;9.098;2023-05-10T03:00:59;7.83;;;7.13;;
16892;SDS011;8563;52.242;9.098;2023-05-10T03:03:32;7.20;;;6.60;;
16892;SDS011;8563;52.242;9.098;2023-05-10T03:06:05;7.40;;;6.70;;
16892;SDS011;8563;52.242;9.098;2023-05-10T03:08:38;7.73;;;7.03;;
16892;SDS011;8563;52.242;9.098;2023-05-10T03:11:24;7.43;;;6.57;;
16892;SDS011;8563;52.242;9.098;2023-05-10T03:14:07;6.40;;;5.80;;
16892;SDS011;8563;52.242;9.098;2023-05-10T03:16:42;7.77;;;5.80;;
16892;SDS011;8563;52.242;9.098;2023-05-10T03:19:21;10.73;;;6.13;;
16892;SDS011;8563;52.242;9.098;2023-05-10T03:21:59;6.40;;;5.80;;
16892;SDS011;8563;52.242;9.098;2023-05-10T03:24:38;6.70;;;6.10;;
16892;SDS011;8563;52.242;9.098;2023-05-10T03:27:12;7.73;;;5.60;;
16892;SDS011;8563;52.242;9.098;2023-05-10T03:29:46;6.07;;;5.40;;
16892;SDS011;8563;52.242;9.098;2023-05-10T03:32:19;5.67;;;5.07;;
16892;SDS011;8563;52.242;9.098;2023-05-10T03:34:52;5.77;;;4.57;;
16892;SDS011;8563;52.242;9.098;2023-05-10T03:37:25;5.60;;;4.87;;
16892;SDS011;8563;52.242;9.098;2023-05-10T03:39:58;5.93;;;5.00;;
16892;SDS011;8563;52.242;9.098;2023-05-10T03:42:31;5.67;;;5.00;;
16892;SDS011;8563;52.242;9.098;2023-05-10T03:45:03;9.37;;;5.60;;
16892;SDS011;8563;52.242;9.098;2023-05-10T03:47:36;6.80;;;6.10;;
16892;SDS011;8563;52.242;9.098;2023-05-10T03:50:09;8.20;;;5.17;;
16892;SDS011;8563;52.242;9.098;2023-05-10T03:52:43;6.03;;;4.80;;
16892;SDS011;8563;52.242;9.098;2023-05-10T03:55:15;5.50;;;4.60;;
16892;SDS011;8563;52.242;9.098;2023-05-10T03:57:48;5.17;;;4.37;;
16892;SDS011;8563;52.242;9.098;2023-05-10T04:00:21;6.27;;;4.57;;
16892;SDS011;8563;52.242;9.098;2023-05-10T04:02:56;4.73;;;4.33;;
16892;SDS011;8563;52.242;9.098;2023-05-10T04:05:29;5.07;;;4.60;;
16892;SDS011;8563;52.242;9.098;2023-05-10T04:08:03;7.13;;;4.97;;
16892;SDS011;8563;52.242;9.098;2023-05-10T04:10:35;5.90;;;4.73;;
16892;SDS011;8563;52.242;9.098;2023-05-10T04:13:08;5.63;;;4.73;;
16892;SDS011;8563;52.242;9.098;2023-05-10T04:15:40;5.37;;;4.80;;
16892;SDS011;8563;52.242;9.098;2023-05-10T04:18:13;4.93;;;4.43;;
16892;SDS011;8563;52.242;9.098;2023-05-10T04:20:45;6.83;;;4.87;;
16892;SDS011;8563;52.242;9.098;2023-05-10T04:23:19;6.13;;;4.47;;
16892;SDS011;8563;52.242;9.098;2023-05-10T04:25:52;4.90;;;4.40;;
16892;SDS011;8563;52.242;9.098;2023-05-10T04:28:24;4.97;;;4.47;;
16892;SDS011;8563;52.242;9.098;2023-05-10T04:31:00;6.23;;;4.40;;
16892;SDS011;8563;52.242;9.098;2023-05-10T04:33:33;6.50;;;4.37;;
16892;SDS011;8563;52.242;9.098;2023-05-10T04:36:06;5.40;;;3.97;;
16892;SDS011;8563;52.242;9.098;2023-05-10T04:38:40;6.27;;;4.27;;
16892;SDS011;8563;52.242;9.098;2023-05-10T04:41:13;5.43;;;4.00;;
16892;SDS011;8563;52.242;9.098;2023-05-10T04:43:46;5.33;;;4.50;;
16892;SDS011;8563;52.242;9.098;2023-05-10T04:46:19;5.03;;;4.33;;
16892;SDS011;8563;52.242;9.098;2023-05-10T04:48:51;7.40;;;3.90;;
16892;SDS011;8563;52.242;9.098;2023-05-10T04:51:24;5.83;;;4.47;;
16892;SDS011;8563;52.242;9.098;2023-05-10T04:53:58;5.23;;;3.40;;
16892;SDS011;8563;52.242;9.098;2023-05-10T04:56:30;4.40;;;3.87;;
16892;SDS011;8563;52.242;9.098;2023-05-10T04:59:03;4.00;;;3.70;;
16892;SDS011;8563;52.242;9.098;2023-05-10T05:01:35;3.80;;;3.50;;
16892;SDS011;8563;52.242;9.098;2023-05-10T05:04:07;4.10;;;3.70;;
16892;SDS011;8563;52.242;9.098;2023-05-10T05:06:40;3.50;;;3.27;;
16892;SDS011;8563;52.242;9.098;2023-05-10T05:09:13;3.77;;;3.47;;
16892;SDS011;8563;52.242;9.098;2023-05-10T05:11:46;3.40;;;3.10;;
16892;SDS011;8563;52.242;9.098;2023-05-10T05:14:19;3.57;;;3.27;;
16892;SDS011;8563;52.242;9.098;2023-05-10T05:16:52;3.57;;;3.27;;
16892;SDS011;8563;52.242;9.098;2023-05-10T05:19:24;3.93;;;3.57;;
16892;SDS011;8563;52.242;9.098;2023-05-10T05:21:57;3.63;;;3.10;;
16892;SDS011;8563;52.242;9.098;2023-05-10T05:24:35;3.77;;;2.80;;
16892;SDS011;8563;52.242;9.098;2023-05-10T05:27:08;2.73;;;2.53;;
16892;SDS011;8563;52.242;9.098;2023-05-10T05:29:41;3.60;;;3.27;;
16892;SDS011;8563;52.242;9.098;2023-05-10T05:32:13;4.73;;;3.93;;
16892;SDS011;8563;52.242;9.098;2023-05-10T05:34:45;5.40;;;4.00;;
16892;SDS011;8563;52.242;9.098;2023-05-10T05:37:18;4.30;;;3.90;;
16892;SDS011;8563;52.242;9.098;2023-05-10T05:39:52;4.00;;;3.43;;
16892;SDS011;8563;52.242;9.098;2023-05-10T05:42:25;4.00;;;3.60;;
16892;SDS011;8563;52.242;9.098;2023-05-10T05:44:58;4.00;;;3.60;;
16892;SDS011;8563;52.242;9.098;2023-05-10T05:47:30;5.27;;;4.13;;
16892;SDS011;8563;52.242;9.098;2023-05-10T05:50:03;4.40;;;3.80;;
16892;SDS011;8563;52.242;9.098;2023-05-10T05:52:35;4.33;;;3.93;;
16892;SDS011;8563;52.242;9.098;2023-05-10T05:55:10;5.93;;;4.77;;
16892;SDS011;8563;52.242;9.098;2023-05-10T05:57:42;4.23;;;3.83;;
16892;SDS011;8563;52.242;9.098;2023-05-10T06:00:15;2.20;;;2.00;;
16892;SDS011;8563;52.242;9.098;2023-05-10T06:02:49;1.30;;;1.20;;
16892;SDS011;8563;52.242;9.098;2023-05-10T06:05:21;1.20;;;0.80;;
16892;SDS011;8563;52.242;9.098;2023-05-10T06:07:54;2.20;;;0.53;;
16892;SDS011;8563;52.242;9.098;2023-05-10T06:10:28;0.80;;;0.70;;
16892;SDS011;8563;52.242;9.098;2023-05-10T06:13:00;0.53;;;0.53;;
16892;SDS011;8563;52.242;9.098;2023-05-10T06:15:33;1.17;;;0.50;;
16892;SDS011;8563;52.242;9.098;2023-05-10T06:18:05;0.50;;;0.40;;
16892;SDS011;8563;52.242;9.098;2023-05-10T06:20:38;0.77;;;0.40;;
16892;SDS011;8563;52.242;9.098;2023-05-10T06:23:10;0.50;;;0.50;;
16892;SDS011;8563;52.242;9.098;2023-05-10T06:25:44;0.57;;;0.53;;
16892;SDS011;8563;52.242;9.098;2023-05-10T06:28:16;0.30;;;0.30;;
16892;SDS011;8563;52.242;9.098;2023-05-10T06:30:49;0.50;;;0.40;;
16892;SDS011;8563;52.242;9.098;2023-05-10T06:33:21;1.00;;;0.60;;
16892;SDS011;8563;52.242;9.098;2023-05-10T06:35:54;0.47;;;0.47;;
16892;SDS011;8563;52.242;9.098;2023-05-10T06:38:26;0.67;;;0.43;;
16892;SDS011;8563;52.242;9.098;2023-05-10T06:41:00;0.53;;;0.43;;
16892;SDS011;8563;52.242;9.098;2023-05-10T06:43:33;1.27;;;0.60;;
16892;SDS011;8563;52.242;9.098;2023-05-10T06:46:05;0.70;;;0.40;;
16892;SDS011;8563;52.242;9.098;2023-05-10T06:48:38;0.50;;;0.50;;
16892;SDS011;8563;52.242;9.098;2023-05-10T06:51:10;0.83;;;0.53;;
16892;SDS011;8563;52.242;9.098;2023-05-10T06:53:43;0.43;;;0.43;;
16892;SDS011;8563;52.242;9.098;2023-05-10T06:56:17;0.50;;;0.40;;
16892;SDS011;8563;52.242;9.098;2023-05-10T06:58:51;0.40;;;0.40;;
16892;SDS011;8563;52.242;9.098;2023-05-10T07:01:23;0.93;;;0.40;;
16892;SDS011;8563;52.242;9.098;2023-05-10T07:03:56;0.40;;;0.40;;
16892;SDS011;8563;52.242;9.098;2023-05-10T07:06:28;0.60;;;0.60;;
16892;SDS011;8563;52.242;9.098;2023-05-10T07:09:01;0.70;;;0.50;;
16892;SDS011;8563;52.242;9.098;2023-05-10T07:11:35;1.00;;;0.60;;
16892;SDS011;8563;52.242;9.098;2023-05-10T07:14:07;1.00;;;0.60;;
16892;SDS011;8563;52.242;9.098;2023-05-10T07:16:41;2.40;;;0.60;;
16892;SDS011;8563;52.242;9.098;2023-05-10T07:19:14;0.60;;;0.60;;
16892;SDS011;8563;52.242;9.098;2023-05-10T07:21:46;0.87;;;0.50;;
16892;SDS011;8563;52.242;9.098;2023-05-10T07:24:19;1.20;;;0.50;;
16892;SDS011;8563;52.242;9.098;2023-05-10T07:26:53;0.60;;;0.53;;
16892;SDS011;8563;52.242;9.098;2023-05-10T07:29:25;0.90;;;0.40;;
16892;SDS011;8563;52.242;9.098;2023-05-10T07:31:58;0.83;;;0.40;;
16892;SDS011;8563;52.242;9.098;2023-05-10T07:34:31;1.20;;;0.60;;
16892;SDS011;8563;52.242;9.098;2023-05-10T07:37:03;2.50;;;0.50;;
16892;SDS011;8563;52.242;9.098;2023-05-10T07:39:36;1.13;;;0.60;;
16892;SDS011;8563;52.242;9.098;2023-05-10T07:42:10;0.97;;;0.60;;
16892;SDS011;8563;52.242;9.098;2023-05-10T07:44:42;0.70;;;0.50;;
16892;SDS011;8563;52.242;9.098;2023-05-10T07:47:15;1.23;;;0.60;;
16892;SDS011;8563;52.242;9.098;2023-05-10T07:49:48;1.13;;;0.50;;
16892;SDS011;8563;52.242;9.098;2023-05-10T07:52:21;0.95;;;0.60;;
16892;SDS011;8563;52.242;9.098;2023-05-10T07:54:54;2.35;;;0.70;;
16892;SDS011;8563;52.242;9.098;2023-05-10T07:57:28;1.57;;;0.63;;
16892;SDS011;8563;52.242;9.098;2023-05-10T08:00:01;0.90;;;0.70;;
16892;SDS011;8563;52.242;9.098;2023-05-10T08:02:43;1.10;;;0.97;;
16892;SDS011;8563;52.242;9.098;2023-05-10T08:05:15;2.30;;;0.90;;
16892;SDS011;8563;52.242;9.098;2023-05-10T08:07:48;1.50;;;1.00;;
16892;SDS011;8563;52.242;9.098;2023-05-10T08:10:21;1.27;;;1.13;;
16892;SDS011;8563;52.242;9.098;2023-05-10T08:12:55;2.30;;;1.27;;
16892;SDS011;8563;52.242;9.098;2023-05-10T08:15:28;1.40;;;1.30;;
16892;SDS011;8563;52.242;9.098;2023-05-10T08:18:00;1.33;;;1.23;;
16892;SDS011;8563;52.242;9.098;2023-05-10T08:20:34;1.80;;;1.50;;
16892;SDS011;8563;52.242;9.098;2023-05-10T08:23:06;1.88;;;1.35;;
16892;SDS011;8563;52.242;9.098;2023-05-10T08:25:39;1.77;;;1.40;;
16892;SDS011;8563;52.242;9.098;2023-05-10T08:28:13;2.22;;;1.38;;
16892;SDS011;8563;52.242;9.098;2023-05-10T08:30:45;1.83;;;1.73;;
16892;SDS011;8563;52.242;9.098;2023-05-10T08:33:17;1.55;;;1.45;;
16892;SDS011;8563;52.242;9.098;2023-05-10T08:35:50;2.97;;;1.77;;
16892;SDS011;8563;52.242;9.098;2023-05-10T08:38:22;2.15;;;1.65;;
16892;SDS011;8563;52.242;9.098;2023-05-10T08:40:55;3.00;;;1.80;;
16892;SDS011;8563;52.242;9.098;2023-05-10T08:43:30;1.65;;;1.55;;
16892;SDS011;8563;52.242;9.098;2023-05-10T08:46:02;2.15;;;1.35;;
16892;SDS011;8563;52.242;9.098;2023-05-10T08:48:37;1.67;;;1.35;;
16892;SDS011;8563;52.242;9.098;2023-05-10T08:51:10;1.42;;;1.30;;
16892;SDS011;8563;52.242;9.098;2023-05-10T08:53:45;3.58;;;1.80;;
16892;SDS011;8563;52.242;9.098;2023-05-10T08:56:17;2.38;;;1.40;;
16892;SDS011;8563;52.242;9.098;2023-05-10T08:58:51;3.17;;;1.65;;
16892;SDS011;8563;52.242;9.098;2023-05-10T09:01:25;2.47;;;1.55;;
16892;SDS011;8563;52.242;9.098;2023-05-10T09:03:57;1.98;;;1.70;;
16892;SDS011;8563;52.242;9.098;2023-05-10T09:06:30;2.35;;;1.77;;
16892;SDS011;8563;52.242;9.098;2023-05-10T09:09:02;2.30;;;1.80;;
16892;SDS011;8563;52.242;9.098;2023-05-10T09:11:34;3.83;;;2.25;;
16892;SDS011;8563;52.242;9.098;2023-05-10T09:14:08;2.78;;;2.03;;
16892;SDS011;8563;52.242;9.098;2023-05-10T09:16:42;3.03;;;2.10;;
16892;SDS011;8563;52.242;9.098;2023-05-10T09:19:15;3.25;;;2.22;;
16892;SDS011;8563;52.242;9.098;2023-05-10T09:21:47;3.17;;;2.15;;
16892;SDS011;8563;52.242;9.098;2023-05-10T09:24:20;3.97;;;2.25;;
16892;SDS011;8563;52.242;9.098;2023-05-10T09:26:57;2.50;;;2.28;;
16892;SDS011;8563;52.242;9.098;2023-05-10T09:29:39;5.35;;;3.28;;
16892;SDS011;8563;52.242;9.098;2023-05-10T09:32:12;5.03;;;3.28;;
16892;SDS011;8563;52.242;9.098;2023-05-10T09:34:46;6.57;;;3.85;;
16892;SDS011;8563;52.242;9.098;2023-05-10T09:37:28;4.95;;;4.00;;
16892;SDS011;8563;52.242;9.098;2023-05-10T09:40:03;6.22;;;3.60;;
16892;SDS011;8563;52.242;9.098;2023-05-10T09:42:36;4.28;;;3.63;;
16892;SDS011;8563;52.242;9.098;2023-05-10T09:45:10;5.72;;;3.67;;
16892;SDS011;8563;52.242;9.098;2023-05-10T09:47:42;3.95;;;3.30;;
16892;SDS011;8563;52.242;9.098;2023-05-10T09:50:15;5.43;;;3.83;;
16892;SDS011;8563;52.242;9.098;2023-05-10T09:52:48;5.10;;;3.22;;
16892;SDS011;8563;52.242;9.098;2023-05-10T09:55:21;4.78;;;3.60;;
16892;SDS011;8563;52.242;9.098;2023-05-10T09:57:58;4.93;;;3.50;;
16892;SDS011;8563;52.242;9.098;2023-05-10T10:00:35;4.30;;;3.70;;
16892;SDS011;8563;52.242;9.098;2023-05-10T10:03:12;5.00;;;3.53;;
16892;SDS011;8563;52.242;9.098;2023-05-10T10:05:45;4.20;;;3.58;;
16892;SDS011;8563;52.242;9.098;2023-05-10T10:08:18;4.75;;;3.95;;
16892;SDS011;8563;52.242;9.098;2023-05-10T10:10:51;5.20;;;4.70;;
16892;SDS011;8563;52.242;9.098;2023-05-10T10:13:23;5.03;;;4.50;;
16892;SDS011;8563;52.242;9.098;2023-05-10T10:15:57;4.10;;;3.70;;
16892;SDS011;8563;52.242;9.098;2023-05-10T10:18:30;6.35;;;4.95;;
16892;SDS011;8563;52.242;9.098;2023-05-10T10:21:02;5.20;;;4.68;;
16892;SDS011;8563;52.242;9.098;2023-05-10T10:23:35;6.78;;;5.13;;
16892;SDS011;8563;52.242;9.098;2023-05-10T10:26:07;5.53;;;4.53;;
16892;SDS011;8563;52.242;9.098;2023-05-10T10:28:40;7.50;;;4.40;;
16892;SDS011;8563;52.242;9.098;2023-05-10T10:31:21;5.60;;;4.70;;
16892;SDS011;8563;52.242;9.098;2023-05-10T10:33:58;8.63;;;5.60;;
16892;SDS011;8563;52.242;9.098;2023-05-10T10:36:32;5.00;;;4.50;;
16892;SDS011;8563;52.242;9.098;2023-05-10T10:39:08;13.90;;;5.38;;
16892;SDS011;8563;52.242;9.098;2023-05-10T10:41:48;8.50;;;5.80;;
16892;SDS011;8563;52.242;9.098;2023-05-10T10:44:34;7.07;;;5.53;;
16892;SDS011;8563;52.242;9.098;2023-05-10T10:47:21;7.35;;;5.32;;
16892;SDS011;8563;52.242;9.098;2023-05-10T10:50:04;6.90;;;5.63;;
16892;SDS011;8563;52.242;9.098;2023-05-10T10:52:37;5.82;;;5.32;;
16892;SDS011;8563;52.242;9.098;2023-05-10T10:55:10;6.10;;;5.40;;
16892;SDS011;8563;52.242;9.098;2023-05-10T10:57:44;8.25;;;6.32;;
16892;SDS011;8563;52.242;9.098;2023-05-10T11:00:18;6.32;;;5.40;;
16892;SDS011;8563;52.242;9.098;2023-05-10T11:02:53;7.38;;;6.63;;
16892;SDS011;8563;52.242;9.098;2023-05-10T11:08:18;5.95;;;5.25;;
16892;SDS011;8563;52.242;9.098;2023-05-10T11:10:53;9.13;;;6.05;;
16892;SDS011;8563;52.242;9.098;2023-05-10T11:13:29;5.57;;;4.68;;
16892;SDS011;8563;52.242;9.098;2023-05-10T11:16:12;6.60;;;5.43;;
16892;SDS011;8563;52.242;9.098;2023-05-10T11:18:58;7.68;;;5.43;;
16892;SDS011;8563;52.242;9.098;2023-05-10T11:21:32;6.10;;;5.50;;
16892;SDS011;8563;52.242;9.098;2023-05-10T11:24:09;5.57;;;5.00;;
16892;SDS011;8563;52.242;9.098;2023-05-10T11:26:44;5.35;;;4.85;;
16892;SDS011;8563;52.242;9.098;2023-05-10T11:29:17;5.30;;;4.80;;
16892;SDS011;8563;52.242;9.098;2023-05-10T11:31:50;6.07;;;4.93;;
16892;SDS011;8563;52.242;9.098;2023-05-10T11:34:24;5.28;;;4.82;;
16892;SDS011;8563;52.242;9.098;2023-05-10T11:36:57;4.93;;;4.53;;
16892;SDS011;8563;52.242;9.098;2023-05-10T11:39:31;5.57;;;5.07;;
16892;SDS011;8563;52.242;9.098;2023-05-10T11:42:03;5.47;;;4.88;;
16892;SDS011;8563;52.242;9.098;2023-05-10T11:44:37;6.55;;;4.90;;
16892;SDS011;8563;52.242;9.098;2023-05-10T11:47:11;4.97;;;4.43;;
16892;SDS011;8563;52.242;9.098;2023-05-10T11:49:45;5.70;;;5.10;;
16892;SDS011;8563;52.242;9.098;2023-05-10T11:52:18;6.88;;;4.90;;
16892;SDS011;8563;52.242;9.098;2023-05-10T11:54:51;5.50;;;4.70;;
16892;SDS011;8563;52.242;9.098;2023-05-10T11:57:25;10.93;;;5.50;;
16892;SDS011;8563;52.242;9.098;2023-05-10T11:59:58;5.32;;;4.55;;
16892;SDS011;8563;52.242;9.098;2023-05-10T12:02:32;6.15;;;4.85;;
16892;SDS011;8563;52.242;9.098;2023-05-10T12:05:07;5.13;;;4.35;;
16892;SDS011;8563;52.242;9.098;2023-05-10T12:07:39;6.88;;;5.88;;
16892;SDS011;8563;52.242;9.098;2023-05-10T12:10:12;5.13;;;4.63;;
16892;SDS011;8563;52.242;9.098;2023-05-10T12:12:46;4.65;;;3.88;;
16892;SDS011;8563;52.242;9.098;2023-05-10T12:15:19;5.22;;;4.65;;
16892;SDS011;8563;52.242;9.098;2023-05-10T12:17:52;5.05;;;4.40;;
16892;SDS011;8563;52.242;9.098;2023-05-10T12:20:27;4.68;;;3.95;;
16892;SDS011;8563;52.242;9.098;2023-05-10T12:23:00;4.78;;;4.28;;
16892;SDS011;8563;52.242;9.098;2023-05-10T12:25:35;4.90;;;4.40;;
16892;SDS011;8563;52.242;9.098;2023-05-10T12:28:07;6.82;;;4.38;;
16892;SDS011;8563;52.242;9.098;2023-05-10T12:30:41;5.05;;;4.25;;
16892;SDS011;8563;52.242;9.098;2023-05-10T12:33:13;5.55;;;4.15;;
16892;SDS011;8563;52.242;9.098;2023-05-10T12:35:49;5.38;;;4.50;;
16892;SDS011;8563;52.242;9.098;2023-05-10T12:38:25;4.95;;;4.47;;
16892;SDS011;8563;52.242;9.098;2023-05-10T12:41:00;5.28;;;4.72;;
16892;SDS011;8563;52.242;9.098;2023-05-10T12:43:33;5.18;;;4.20;;
16892;SDS011;8563;52.242;9.098;2023-05-10T12:46:05;5.07;;;4.57;;
16892;SDS011;8563;52.242;9.098;2023-05-10T12:48:39;4.95;;;3.58;;
16892;SDS011;8563;52.242;9.098;2023-05-10T12:51:13;4.15;;;3.70;;
16892;SDS011;8563;52.242;9.098;2023-05-10T12:53:49;3.35;;;2.90;;
16892;SDS011;8563;52.242;9.098;2023-05-10T12:56:21;5.15;;;3.35;;
16892;SDS011;8563;52.242;9.098;2023-05-10T12:58:54;4.22;;;3.50;;
16892;SDS011;8563;52.242;9.098;2023-05-10T13:01:26;4.82;;;3.92;;
16892;SDS011;8563;52.242;9.098;2023-05-10T13:03:59;3.90;;;2.95;;
16892;SDS011;8563;52.242;9.098;2023-05-10T13:06:32;3.97;;;3.63;;
16892;SDS011;8563;52.242;9.098;2023-05-10T13:09:05;3.15;;;2.83;;
16892;SDS011;8563;52.242;9.098;2023-05-10T13:11:37;4.55;;;3.70;;
16892;SDS011;8563;52.242;9.098;2023-05-10T13:14:10;3.95;;;3.65;;
16892;SDS011;8563;52.242;9.098;2023-05-10T13:16:43;3.85;;;3.40;;
16892;SDS011;8563;52.242;9.098;2023-05-10T13:19:16;6.22;;;4.68;;
16892;SDS011;8563;52.242;9.098;2023-05-10T13:21:50;4.57;;;4.03;;
16892;SDS011;8563;52.242;9.098;2023-05-10T13:24:22;4.90;;;3.92;;
16892;SDS011;8563;52.242;9.098;2023-05-10T13:26:55;5.68;;;4.68;;
16892;SDS011;8563;52.242;9.098;2023-05-10T13:29:27;4.53;;;4.13;;
16892;SDS011;8563;52.242;9.098;2023-05-10T13:32:00;3.72;;;3.40;;
16892;SDS011;8563;52.242;9.098;2023-05-10T13:34:32;7.45;;;3.78;;
16892;SDS011;8563;52.242;9.098;2023-05-10T13:37:07;5.65;;;4.30;;
16892;SDS011;8563;52.242;9.098;2023-05-10T13:39:39;6.40;;;4.50;;
16892;SDS011;8563;52.242;9.098;2023-05-10T13:42:12;4.72;;;3.83;;
16892;SDS011;8563;52.242;9.098;2023-05-10T13:44:44;5.93;;;4.50;;
16892;SDS011;8563;52.242;9.098;2023-05-10T13:47:16;5.15;;;4.65;;
16892;SDS011;8563;52.242;9.098;2023-05-10T13:49:51;5.10;;;3.97;;
16892;SDS011;8563;52.242;9.098;2023-05-10T13:52:25;4.97;;;4.47;;
16892;SDS011;8563;52.242;9.098;2023-05-10T13:54:58;6.03;;;4.25;;
16892;SDS011;8563;52.242;9.098;2023-05-10T13:57:30;4.68;;;4.05;;
16892;SDS011;8563;52.242;9.098;2023-05-10T14:00:06;5.30;;;4.60;;
16892;SDS011;8563;52.242;9.098;2023-05-10T14:02:38;9.07;;;4.32;;
16892;SDS011;8563;52.242;9.098;2023-05-10T14:05:11;7.13;;;4.40;;
16892;SDS011;8563;52.242;9.098;2023-05-10T14:07:45;5.30;;;4.68;;
16892;SDS011;8563;52.242;9.098;2023-05-10T14:10:17;5.60;;;4.72;;
16892;SDS011;8563;52.242;9.098;2023-05-10T14:12:50;7.28;;;6.60;;
16892;SDS011;8563;52.242;9.098;2023-05-10T14:15:22;6.57;;;5.82;;
16892;SDS011;8563;52.242;9.098;2023-05-10T14:17:55;9.55;;;8.32;;
16892;SDS011;8563;52.242;9.098;2023-05-10T14:20:27;10.32;;;8.35;;
16892;SDS011;8563;52.242;9.098;2023-05-10T14:23:01;14.10;;;9.50;;
16892;SDS011;8563;52.242;9.098;2023-05-10T14:25:33;12.32;;;10.20;;
16892;SDS011;8563;52.242;9.098;2023-05-10T14:28:06;10.65;;;9.43;;
16892;SDS011;8563;52.242;9.098;2023-05-10T14:30:38;11.98;;;8.93;;
16892;SDS011;8563;52.242;9.098;2023-05-10T14:33:11;11.93;;;10.73;;
16892;SDS011;8563;52.242;9.098;2023-05-10T14:35:43;11.93;;;10.73;;
16892;SDS011;8563;52.242;9.098;2023-05-10T14:38:18;12.50;;;11.25;;
16892;SDS011;8563;52.242;9.098;2023-05-10T14:40:50;12.70;;;9.25;;
16892;SDS011;8563;52.242;9.098;2023-05-10T14:43:23;11.90;;;9.60;;
16892;SDS011;8563;52.242;9.098;2023-05-10T14:45:55;12.52;;;10.85;;
16892;SDS011;8563;52.242;9.098;2023-05-10T14:48:28;9.85;;;8.68;;
16892;SDS011;8563;52.242;9.098;2023-05-10T14:51:00;10.40;;;8.63;;
16892;SDS011;8563;52.242;9.098;2023-05-10T14:53:35;11.15;;;9.05;;
16892;SDS011;8563;52.242;9.098;2023-05-10T14:56:07;8.82;;;7.93;;
16892;SDS011;8563;52.242;9.098;2023-05-10T14:58:39;10.43;;;9.30;;
16892;SDS011;8563;52.242;9.098;2023-05-10T15:01:12;10.30;;;8.98;;
16892;SDS011;8563;52.242;9.098;2023-05-10T15:03:44;9.10;;;7.93;;
16892;SDS011;8563;52.242;9.098;2023-05-10T15:06:17;9.80;;;7.75;;
16892;SDS011;8563;52.242;9.098;2023-05-10T15:08:57;9.07;;;6.75;;
16892;SDS011;8563;52.242;9.098;2023-05-10T15:11:30;7.43;;;6.72;;
16892;SDS011;8563;52.242;9.098;2023-05-10T15:14:02;7.45;;;6.75;;
16892;SDS011;8563;52.242;9.098;2023-05-10T15:16:36;7.32;;;6.60;;
16892;SDS011;8563;52.242;9.098;2023-05-10T15:19:08;9.02;;;5.95;;
16892;SDS011;8563;52.242;9.098;2023-05-10T15:21:41;9.23;;;7.13;;
16892;SDS011;8563;52.242;9.098;2023-05-10T15:24:16;10.93;;;8.77;;
16892;SDS011;8563;52.242;9.098;2023-05-10T15:26:49;9.18;;;7.70;;
16892;SDS011;8563;52.242;9.098;2023-05-10T15:29:21;9.20;;;7.13;;
16892;SDS011;8563;52.242;9.098;2023-05-10T15:31:54;9.25;;;7.22;;
16892;SDS011;8563;52.242;9.098;2023-05-10T15:34:26;8.70;;;7.18;;
16892;SDS011;8563;52.242;9.098;2023-05-10T15:36:59;9.55;;;7.43;;
16892;SDS011;8563;52.242;9.098;2023-05-10T15:39:32;8.95;;;7.85;;
16892;SDS011;8563;52.242;9.098;2023-05-10T15:42:05;9.23;;;6.70;;
16892;SDS011;8563;52.242;9.098;2023-05-10T15:44:37;9.15;;;7.60;;